Time;durP1;ratioP1;P1;durP2;ratioP2;P2;SDS_P1;SDS_P2;PMS_P1;PMS_P2;Temp;Humidity;BMP_temperature;BMP_pressure;BME280_temperature;BME280_humidity;BME280_pressure;Samples;Min_cycle;Max_cycle;Signal;HPM_P1;HPM_P2
2022/01/13 00:01:01;;;;;;;119.80;61.95;;;-1.50;99.90;;;;;;5016477;28;20038;-78
2022/01/13 00:03:27;;;;;;;124.10;62.90;;;-1.50;99.90;;;;;;5017810;28;20497;-79
2022/01/13 00:05:53;;;;;;;109.60;56.97;;;-1.40;99.90;;;;;;5017775;28;20057;-78
2022/01/13 00:08:19;;;;;;;124.80;61.00;;;-1.40;99.90;;;;;;5017604;28;20029;-78
2022/01/13 00:10:44;;;;;;;134.15;63.95;;;-1.40;99.90;;;;;;5017668;28;20026;-78
2022/01/13 00:13:20;;;;;;;112.13;61.75;;;-1.40;99.90;;;;;;5017751;28;20026;-78
2022/01/13 00:15:49;;;;;;;113.45;56.88;;;-1.40;99.90;;;;;;5017455;28;20048;-78
2022/01/13 00:18:18;;;;;;;100.18;54.30;;;-1.50;99.90;;;;;;5017446;28;20020;-78
2022/01/13 00:21:11;;;;;;;103.82;55.58;;;-1.50;99.90;;;;;;5017519;28;20076;-78
2022/01/13 00:23:49;;;;;;;107.77;58.93;;;-1.50;99.90;;;;;;5011973;28;20036;-78
2022/01/13 00:26:25;;;;;;;114.93;59.58;;;-1.50;99.90;;;;;;5017762;28;20076;-78
2022/01/13 00:28:53;;;;;;;110.32;57.92;;;-1.50;99.90;;;;;;5017416;28;20041;-78
2022/01/13 00:31:25;;;;;;;106.03;54.03;;;-1.50;99.90;;;;;;5017928;28;20017;-78
2022/01/13 00:33:54;;;;;;;118.30;60.83;;;-1.50;99.90;;;;;;5017106;28;20113;-78
2022/01/13 00:36:21;;;;;;;104.30;54.15;;;-1.60;99.90;;;;;;5017578;28;20025;-78
2022/01/13 00:38:47;;;;;;;111.38;58.67;;;-1.60;99.90;;;;;;5017666;28;20033;-78
2022/01/13 00:41:12;;;;;;;106.55;57.28;;;-1.50;99.90;;;;;;5017373;28;20022;-78
2022/01/13 00:43:41;;;;;;;125.03;60.55;;;-1.50;99.90;;;;;;5017228;28;20030;-78
2022/01/13 00:46:08;;;;;;;119.00;60.08;;;-1.50;99.90;;;;;;5016024;28;20033;-78
2022/01/13 00:48:34;;;;;;;106.22;56.53;;;-1.50;99.90;;;;;;5017070;28;20159;-77
2022/01/13 00:51:00;;;;;;;105.65;53.58;;;-1.50;99.90;;;;;;5017290;28;20022;-77
2022/01/13 00:53:25;;;;;;;106.50;57.20;;;-1.50;99.90;;;;;;5016067;28;20030;-77
2022/01/13 00:56:00;;;;;;;104.40;55.90;;;-1.50;99.90;;;;;;5017386;28;20022;-78
2022/01/13 00:58:31;;;;;;;102.72;58.33;;;-1.50;99.90;;;;;;5017303;28;20030;-78
2022/01/13 01:00:58;;;;;;;104.95;55.13;;;-1.50;99.90;;;;;;5017153;28;20022;-78
2022/01/13 01:03:25;;;;;;;112.40;57.95;;;-1.50;99.90;;;;;;5015598;28;20121;-78
2022/01/13 01:05:51;;;;;;;114.57;58.00;;;-1.50;99.90;;;;;;5017081;28;20030;-77
2022/01/13 01:08:18;;;;;;;107.32;57.40;;;-1.50;99.90;;;;;;5015598;28;20033;-78
2022/01/13 01:10:46;;;;;;;120.50;61.33;;;-1.40;99.90;;;;;;5016835;28;20080;-78
2022/01/13 01:13:15;;;;;;;113.40;60.42;;;-1.40;99.90;;;;;;5015688;28;20026;-77
2022/01/13 01:15:46;;;;;;;123.13;66.50;;;-1.40;99.90;;;;;;5016969;28;20022;-77
2022/01/13 01:18:24;;;;;;;122.00;64.53;;;-1.40;99.90;;;;;;5015920;28;20467;-78
2022/01/13 01:22:02;;;;;;;119.97;65.72;;;-1.40;99.90;;;;;;5018851;28;20025;-77
2022/01/13 01:28:52;;;;;;;114.10;63.00;;;-1.40;99.90;;;;;;5020730;28;20052;-78
2022/01/13 01:31:25;;;;;;;102.03;57.67;;;-1.40;99.90;;;;;;5020955;28;20034;-77
2022/01/13 01:34:03;;;;;;;100.28;58.03;;;-1.40;99.90;;;;;;5018936;28;20022;-78
2022/01/13 01:36:31;;;;;;;109.38;61.50;;;-1.40;99.90;;;;;;5020309;28;20029;-77
2022/01/13 01:38:59;;;;;;;94.40;57.92;;;-1.40;99.90;;;;;;5020759;28;20072;-77
2022/01/13 01:41:24;;;;;;;98.28;56.63;;;-1.50;99.90;;;;;;5020230;28;20390;-78
2022/01/13 01:43:52;;;;;;;113.53;59.47;;;-1.50;99.90;;;;;;5020457;28;20026;-77
2022/01/13 01:46:17;;;;;;;94.13;52.15;;;-1.50;99.90;;;;;;5020253;28;20028;-77
2022/01/13 01:48:43;;;;;;;100.88;52.80;;;-1.60;99.90;;;;;;5020252;28;20089;-77
2022/01/13 01:51:09;;;;;;;95.80;53.88;;;-1.60;99.90;;;;;;5020142;28;20048;-77
2022/01/13 01:53:34;;;;;;;90.82;47.13;;;-1.60;99.90;;;;;;5020496;28;20025;-77
2022/01/13 01:56:00;;;;;;;88.32;50.00;;;-1.60;99.90;;;;;;5020033;28;20587;-77
2022/01/13 01:58:27;;;;;;;94.38;49.90;;;-1.70;99.90;;;;;;5018806;28;20018;-77
2022/01/13 02:00:54;;;;;;;93.20;49.17;;;-1.70;99.90;;;;;;5019093;28;20490;-77
2022/01/13 02:03:22;;;;;;;88.93;47.55;;;-1.70;99.90;;;;;;5018675;28;20520;-77
2022/01/13 02:05:48;;;;;;;103.03;50.30;;;-1.70;99.90;;;;;;5018648;28;20030;-77
2022/01/13 02:08:14;;;;;;;99.85;49.85;;;-1.70;99.90;;;;;;5019791;28;20014;-78
2022/01/13 02:10:40;;;;;;;92.32;48.13;;;-1.70;99.90;;;;;;5019836;28;20060;-77
2022/01/13 02:13:10;;;;;;;96.60;49.42;;;-1.80;99.90;;;;;;5018594;28;20078;-77
2022/01/13 02:15:48;;;;;;;103.68;50.92;;;-1.70;99.90;;;;;;5018485;28;20029;-77
2022/01/13 02:18:14;;;;;;;108.93;51.63;;;-1.70;99.90;;;;;;5019532;28;20076;-77
2022/01/13 02:20:47;;;;;;;102.22;50.47;;;-1.70;99.90;;;;;;5019588;28;20059;-77
2022/01/13 02:23:13;;;;;;;108.30;52.75;;;-1.70;99.90;;;;;;5019812;28;20422;-77
2022/01/13 02:25:39;;;;;;;113.63;51.90;;;-1.70;99.90;;;;;;5019639;28;20445;-77
2022/01/13 02:28:05;;;;;;;115.50;52.78;;;-1.70;99.90;;;;;;5018235;28;20030;-77
2022/01/13 02:30:31;;;;;;;104.22;52.17;;;-1.70;99.90;;;;;;5019432;28;20397;-77
2022/01/13 02:32:56;;;;;;;105.40;52.70;;;-1.70;99.90;;;;;;5018422;28;20018;-77
2022/01/13 02:35:32;;;;;;;100.65;49.25;;;-1.70;99.90;;;;;;5018968;28;20030;-77
2022/01/13 02:37:58;;;;;;;108.65;49.33;;;-1.70;99.90;;;;;;5019383;28;20022;-77
2022/01/13 02:40:24;;;;;;;106.80;50.15;;;-1.80;99.90;;;;;;5019553;28;20034;-77
2022/01/13 02:42:50;;;;;;;94.53;47.88;;;-1.80;99.90;;;;;;5017881;28;20068;-77
2022/01/13 02:45:19;;;;;;;96.82;51.70;;;-1.80;99.90;;;;;;5019441;28;20498;-77
2022/01/13 02:50:11;;;;;;;99.88;51.85;;;-1.80;99.90;;;;;;5018859;28;20060;-77
2022/01/13 02:52:38;;;;;;;96.88;51.67;;;-1.90;99.90;;;;;;5019141;28;20087;-77
2022/01/13 02:55:05;;;;;;;104.63;53.05;;;-1.90;99.90;;;;;;5019249;28;20103;-77
2022/01/13 02:57:32;;;;;;;98.50;49.10;;;-1.90;99.90;;;;;;5018919;28;20105;-77
2022/01/13 02:59:58;;;;;;;89.95;48.30;;;-1.90;99.90;;;;;;5017825;28;20030;-77
2022/01/13 03:02:29;;;;;;;107.57;52.40;;;-1.90;99.90;;;;;;5017477;28;20110;-76
2022/01/13 03:04:56;;;;;;;94.53;48.40;;;-1.90;99.90;;;;;;5018830;28;20029;-77
2022/01/13 03:07:22;;;;;;;94.65;50.90;;;-1.90;99.90;;;;;;5018798;28;20490;-77
2022/01/13 03:09:48;;;;;;;95.43;56.00;;;-1.90;99.90;;;;;;5017374;28;20046;-76
2022/01/13 03:12:13;;;;;;;103.55;54.25;;;-1.80;99.90;;;;;;5017242;28;20076;-77
2022/01/13 03:14:39;;;;;;;109.90;57.88;;;-1.80;99.90;;;;;;5017436;28;20034;-76
2022/01/13 03:17:05;;;;;;;103.97;56.00;;;-1.80;99.90;;;;;;5018599;28;20018;-77
2022/01/13 03:19:31;;;;;;;103.57;56.45;;;-1.80;99.90;;;;;;5018432;28;20033;-77
2022/01/13 03:21:57;;;;;;;99.80;55.70;;;-1.70;99.90;;;;;;5018625;28;20030;-77
2022/01/13 03:24:23;;;;;;;95.95;54.20;;;-1.70;99.90;;;;;;5018707;28;20025;-77
2022/01/13 03:26:49;;;;;;;100.53;53.72;;;-1.80;99.90;;;;;;5018303;28;20022;-76
2022/01/13 03:29:17;;;;;;;97.65;54.72;;;-1.80;99.90;;;;;;5018505;28;20467;-77
2022/01/13 03:31:45;;;;;;;93.38;53.38;;;-1.70;99.90;;;;;;5018395;28;20014;-77
2022/01/13 03:34:13;;;;;;;92.95;53.88;;;-1.70;99.90;;;;;;5018150;28;20072;-77
2022/01/13 03:36:40;;;;;;;105.03;56.03;;;-1.70;99.90;;;;;;5018068;28;20022;-76
2022/01/13 03:39:08;;;;;;;92.70;52.75;;;-1.60;99.90;;;;;;5018379;28;20026;-77
2022/01/13 03:41:35;;;;;;;102.00;55.65;;;-1.70;99.90;;;;;;5003533;28;20030;-77
2022/01/13 03:44:06;;;;;;;128.75;60.78;;;-1.70;99.90;;;;;;5017940;28;20030;-76
2022/01/13 03:46:37;;;;;;;132.02;60.95;;;-1.60;99.90;;;;;;5018346;28;20065;-77
2022/01/13 03:49:03;;;;;;;;;;;-1.40;99.90;;;;;;5018336;28;20026;-77
2022/01/13 03:51:55;;;;;;;103.43;54.45;;;-1.40;99.90;;;;;;5017957;28;19906;-77
2022/01/13 03:54:36;;;;;;;99.45;53.45;;;-1.40;99.90;;;;;;5017836;28;20022;-77
2022/01/13 03:57:13;;;;;;;93.80;50.88;;;-1.50;99.90;;;;;;5016544;28;20029;-77
2022/01/13 04:00:16;;;;;;;89.57;51.65;;;-1.60;99.90;;;;;;5017764;28;20018;-77
2022/01/13 04:02:42;;;;;;;83.95;48.65;;;-1.70;99.90;;;;;;5017929;28;20065;-77
2022/01/13 04:05:08;;;;;;;88.95;48.25;;;-1.70;99.90;;;;;;5017679;28;20109;-76
2022/01/13 04:07:34;;;;;;;90.63;49.22;;;-1.70;99.90;;;;;;5017707;28;20033;-76
2022/01/13 04:10:00;;;;;;;94.90;53.60;;;-1.70;99.90;;;;;;5016194;28;20049;-77
2022/01/13 04:12:27;;;;;;;85.43;53.47;;;-1.70;99.90;;;;;;5017554;28;20432;-76
2022/01/13 04:14:57;;;;;;;92.97;51.40;;;-1.60;99.90;;;;;;5016439;28;20022;-77
2022/01/13 04:17:24;;;;;;;104.87;54.40;;;-1.60;99.90;;;;;;5016328;28;20025;-77
2022/01/13 04:19:50;;;;;;;93.80;53.30;;;-1.50;99.90;;;;;;5017239;28;20034;-77
2022/01/13 04:22:17;;;;;;;105.18;55.25;;;-1.50;99.90;;;;;;5017579;28;20499;-77
2022/01/13 04:24:45;;;;;;;99.60;54.10;;;-1.40;99.90;;;;;;5017639;28;20036;-77
2022/01/13 04:27:21;;;;;;;88.97;50.75;;;-1.30;99.90;;;;;;5016040;28;20025;-77
2022/01/13 04:29:49;;;;;;;98.82;53.78;;;-1.30;99.90;;;;;;5017520;28;20030;-77
2022/01/13 04:32:15;;;;;;;87.63;44.88;;;-1.20;99.90;;;;;;5016112;28;20022;-77
2022/01/13 04:34:41;;;;;;;94.38;40.20;;;-1.20;99.90;;;;;;5016985;28;20026;-77
2022/01/13 04:37:07;;;;;;;100.40;37.15;;;-1.10;99.90;;;;;;5017606;28;20470;-76
2022/01/13 04:39:33;;;;;;;113.13;37.58;;;-1.10;99.90;;;;;;5016088;28;20025;-76
2022/01/13 04:41:59;;;;;;;152.38;36.50;;;-1.10;99.90;;;;;;5002758;28;20034;-77
2022/01/13 04:44:25;;;;;;;129.07;36.58;;;-1.10;99.90;;;;;;5017339;28;20482;-76
2022/01/13 04:46:53;;;;;;;147.50;37.58;;;-1.00;99.90;;;;;;5016121;28;20037;-76
2022/01/13 04:49:20;;;;;;;157.55;39.38;;;-1.00;99.90;;;;;;5015623;28;20080;-76
2022/01/13 04:51:47;;;;;;;258.88;45.22;;;-1.00;99.90;;;;;;5016087;28;20026;-76
2022/01/13 04:54:13;;;;;;;199.57;41.47;;;-1.00;99.90;;;;;;5017229;28;20030;-75
2022/01/13 04:59:06;;;;;;;153.68;41.30;;;-0.90;99.90;;;;;;5021176;28;20030;-77
2022/01/13 05:01:33;;;;;;;154.82;40.20;;;-0.90;99.90;;;;;;5021381;28;20038;-77
2022/01/13 05:03:58;;;;;;;132.23;38.22;;;-0.90;99.90;;;;;;5019386;28;20125;-77
2022/01/13 05:06:24;;;;;;;189.85;39.90;;;-0.80;99.90;;;;;;5021102;28;20060;-76
2022/01/13 05:08:51;;;;;;;147.77;37.60;;;-0.90;99.90;;;;;;5020744;28;20121;-77
2022/01/13 05:11:18;;;;;;;128.23;38.80;;;-0.90;99.90;;;;;;5019809;28;20030;-77
2022/01/13 05:13:44;;;;;;;155.10;33.75;;;-0.90;99.90;;;;;;5019579;28;20060;-77
2022/01/13 05:16:19;;;;;;;115.10;32.78;;;-0.90;99.90;;;;;;5020778;28;20486;-77
2022/01/13 05:19:12;;;;;;;134.00;36.92;;;-0.90;99.90;;;;;;5020800;28;20014;-76
2022/01/13 05:24:09;;;;;;;120.05;35.63;;;-0.80;99.90;;;;;;5020680;28;20036;-76
2022/01/13 05:26:35;;;;;;;118.80;36.53;;;-0.80;99.90;;;;;;5019879;28;20022;-76
2022/01/13 05:29:00;;;;;;;177.82;36.85;;;-0.80;99.90;;;;;;5020636;28;20029;-76
2022/01/13 05:31:26;;;;;;;121.95;35.03;;;-0.80;99.90;;;;;;5020667;28;20026;-77
2022/01/13 05:33:52;;;;;;;146.38;38.67;;;-0.70;99.90;;;;;;5020236;28;20509;-76
2022/01/13 05:36:18;;;;;;;183.02;39.22;;;-0.70;99.90;;;;;;5020536;28;20025;-76
2022/01/13 05:38:43;;;;;;;109.40;36.58;;;-0.70;99.90;;;;;;5019278;28;20472;-76
2022/01/13 05:41:10;;;;;;;133.85;35.88;;;-0.70;99.90;;;;;;5014716;28;20030;-76
2022/01/13 05:43:36;;;;;;;114.80;36.55;;;-0.60;99.90;;;;;;5005205;28;20383;-76
2022/01/13 05:46:03;;;;;;;208.38;34.72;;;-0.60;99.90;;;;;;5013106;28;20030;-76
2022/01/13 05:48:29;;;;;;;215.35;38.72;;;-0.60;99.90;;;;;;5019954;28;20520;-76
2022/01/13 05:50:55;;;;;;;109.18;38.25;;;-0.60;99.90;;;;;;5020253;28;20432;-76
2022/01/13 05:53:21;;;;;;;164.27;40.33;;;-0.70;99.90;;;;;;5018935;28;20034;-76
2022/01/13 05:55:46;;;;;;;205.63;46.55;;;-0.60;99.90;;;;;;5020312;28;20586;-76
2022/01/13 05:58:12;;;;;;;154.43;45.30;;;-0.60;99.90;;;;;;5020012;28;20026;-77
2022/01/13 06:00:38;;;;;;;147.68;45.80;;;-0.60;99.90;;;;;;5020172;28;20030;-76
2022/01/13 06:03:04;;;;;;;151.80;44.17;;;-0.60;99.90;;;;;;5019787;28;20078;-76
2022/01/13 06:05:31;;;;;;;191.73;38.85;;;-0.50;99.90;;;;;;5020054;28;20033;-76
2022/01/13 06:07:57;;;;;;;162.77;37.95;;;-0.60;99.90;;;;;;5019971;28;20088;-76
2022/01/13 06:10:23;;;;;;;180.23;39.50;;;-0.60;99.90;;;;;;5018403;28;20526;-77
2022/01/13 06:12:50;;;;;;;172.75;38.10;;;-0.60;99.90;;;;;;5018410;28;20026;-76
2022/01/13 06:15:19;;;;;;;174.77;40.13;;;-0.70;99.90;;;;;;5019866;28;20026;-76
2022/01/13 06:17:47;;;;;;;232.27;44.90;;;-0.70;99.90;;;;;;5019677;28;20028;-76
2022/01/13 06:20:13;;;;;;;180.43;44.47;;;-0.70;99.90;;;;;;5019385;28;20022;-76
2022/01/13 06:22:41;;;;;;;182.20;44.55;;;-0.70;99.90;;;;;;5019884;28;20026;-76
2022/01/13 06:25:08;;;;;;;107.50;40.78;;;-0.70;99.90;;;;;;5019595;28;20030;-76
2022/01/13 06:27:35;;;;;;;141.00;44.50;;;-0.70;99.90;;;;;;5018369;28;20036;-76
2022/01/13 06:30:00;;;;;;;171.75;45.33;;;-0.60;99.90;;;;;;5018035;28;20025;-76
2022/01/13 06:32:26;;;;;;;128.63;45.20;;;-0.50;99.90;;;;;;5019781;28;20079;-76
2022/01/13 06:34:52;;;;;;;147.13;47.58;;;-0.60;99.90;;;;;;5019047;28;20014;-76
2022/01/13 06:37:19;;;;;;;121.55;45.17;;;-0.50;99.90;;;;;;5019818;28;20541;-76
2022/01/13 06:39:46;;;;;;;122.70;46.15;;;-0.60;99.90;;;;;;5019359;28;20532;-76
2022/01/13 06:42:12;;;;;;;163.93;45.13;;;-0.60;99.90;;;;;;5019452;28;20044;-76
2022/01/13 06:44:39;;;;;;;132.40;39.67;;;-0.60;99.90;;;;;;5019314;28;20030;-77
2022/01/13 06:47:06;;;;;;;135.93;46.33;;;-0.60;99.90;;;;;;5019521;28;20048;-77
2022/01/13 06:49:32;;;;;;;179.68;46.95;;;-0.60;99.90;;;;;;5018980;28;20085;-77
2022/01/13 06:51:58;;;;;;;240.05;50.30;;;-0.70;99.90;;;;;;5019263;28;20022;-76
2022/01/13 06:54:24;;;;;;;151.48;45.72;;;-0.70;99.90;;;;;;5017813;28;20076;-76
2022/01/13 06:56:51;;;;;;;123.00;44.15;;;-0.70;99.90;;;;;;5019006;28;20113;-76
2022/01/13 06:59:17;;;;;;;130.48;43.50;;;-0.60;99.90;;;;;;5018937;28;20724;-76
2022/01/13 07:01:43;;;;;;;154.60;44.83;;;-0.60;99.90;;;;;;5018331;28;20054;-76
2022/01/13 07:04:11;;;;;;;119.05;41.47;;;-0.60;99.90;;;;;;5018574;28;20029;-76
2022/01/13 07:06:38;;;;;;;101.68;40.00;;;-0.60;99.90;;;;;;5018385;28;20164;-76
2022/01/13 07:09:06;;;;;;;86.22;41.45;;;-0.60;99.90;;;;;;5018728;28;20132;-76
2022/01/13 07:11:32;;;;;;;146.93;43.75;;;-0.60;99.90;;;;;;5018823;28;20021;-76
2022/01/13 07:13:58;;;;;;;113.45;42.22;;;-0.60;99.90;;;;;;5017285;28;20018;-76
2022/01/13 07:16:23;;;;;;;126.00;42.72;;;-0.60;99.90;;;;;;5019026;28;20034;-76
2022/01/13 07:18:49;;;;;;;1141.78;416.48;;;-0.60;99.90;;;;;;5017652;28;20053;-76
2022/01/13 07:21:16;;;;;;;187.20;72.85;;;-0.60;99.90;;;;;;5018824;28;20076;-75
2022/01/13 07:23:42;;;;;;;174.75;63.13;;;-0.60;99.90;;;;;;5018643;28;20053;-76
2022/01/13 07:26:09;;;;;;;122.88;45.25;;;-0.60;99.90;;;;;;5018621;28;20030;-76
2022/01/13 07:28:34;;;;;;;82.15;39.38;;;-0.60;99.90;;;;;;5018353;28;20045;-76
2022/01/13 07:31:00;;;;;;;591.83;223.93;;;-0.60;99.90;;;;;;5018054;28;20034;-76
2022/01/13 07:33:27;;;;;;;138.23;50.60;;;-0.60;99.90;;;;;;5015924;28;20092;-76
2022/01/13 07:35:53;;;;;;;100.57;40.97;;;-0.60;99.90;;;;;;5017984;28;20029;-76
2022/01/13 07:38:19;;;;;;;81.25;37.95;;;-0.60;99.90;;;;;;5018266;28;20402;-76
2022/01/13 07:40:45;;;;;;;270.83;116.30;;;-0.60;99.90;;;;;;5011559;28;20038;-76
2022/01/13 07:43:11;;;;;;;216.45;105.50;;;-0.60;99.90;;;;;;5018105;28;20026;-76
2022/01/13 07:45:37;;;;;;;100.85;37.90;;;-0.70;99.90;;;;;;5017609;28;20383;-76
2022/01/13 07:48:03;;;;;;;92.00;38.22;;;-0.60;99.90;;;;;;5015358;28;20041;-76
2022/01/13 07:50:28;;;;;;;90.63;36.95;;;-0.70;99.90;;;;;;5049197;28;20026;-76
2022/01/13 07:52:54;;;;;;;80.15;37.58;;;-0.70;99.90;;;;;;5017457;28;20034;-76
2022/01/13 07:55:20;;;;;;;177.00;67.13;;;-0.70;99.90;;;;;;5049372;28;20030;-76
2022/01/13 07:57:45;;;;;;;104.85;41.55;;;-0.70;99.90;;;;;;5017312;28;20093;-76
2022/01/13 08:00:13;;;;;;;108.38;39.78;;;-0.60;99.90;;;;;;5017343;28;20022;-76
2022/01/13 08:02:40;;;;;;;96.72;38.58;;;-0.60;99.90;;;;;;5017312;28;20555;-76
2022/01/13 08:05:06;;;;;;;93.53;39.47;;;-0.70;99.90;;;;;;5017149;28;20034;-76
2022/01/13 08:07:32;;;;;;;96.93;39.15;;;-0.60;99.90;;;;;;5017155;28;20017;-76
2022/01/13 08:09:58;;;;;;;102.72;37.08;;;-0.60;99.90;;;;;;5016937;28;20038;-76
2022/01/13 08:12:24;;;;;;;86.28;35.22;;;-0.60;99.90;;;;;;5015161;28;20053;-76
2022/01/13 08:14:50;;;;;;;97.65;38.88;;;-0.60;99.90;;;;;;5048937;28;20032;-76
2022/01/13 08:20:01;;;;;;;77.20;40.85;;;-0.50;99.90;;;;;;5017420;28;20095;-76
2022/01/13 08:22:26;;;;;;;108.88;45.97;;;-0.40;99.90;;;;;;5016466;28;20030;-75
2022/01/13 08:24:52;;;;;;;88.93;42.92;;;-0.40;99.90;;;;;;5017635;28;20029;-74
2022/01/13 08:27:18;;;;;;;95.82;42.85;;;-0.40;99.90;;;;;;5017359;28;20060;-74
2022/01/13 08:29:43;;;;;;;90.57;41.92;;;-0.30;99.90;;;;;;5016500;28;20064;-75
2022/01/13 08:32:09;;;;;;;89.03;39.10;;;-0.40;99.90;;;;;;5017424;28;20029;-74
2022/01/13 08:34:35;;;;;;;100.22;44.50;;;-0.30;99.90;;;;;;5016685;28;20041;-75
2022/01/13 08:37:01;;;;;;;79.78;41.90;;;-0.30;99.90;;;;;;5017349;28;20037;-75
2022/01/13 08:39:26;;;;;;;92.35;43.25;;;-0.30;99.90;;;;;;5017474;28;20037;-75
2022/01/13 08:41:52;;;;;;;83.03;42.08;;;-0.30;99.90;;;;;;5017153;28;20026;-76
2022/01/13 08:44:18;;;;;;;82.10;41.40;;;-0.30;99.90;;;;;;5006295;28;20033;-76
2022/01/13 08:46:44;;;;;;;82.68;40.90;;;-0.30;99.90;;;;;;5008801;28;20028;-76
2022/01/13 08:49:10;;;;;;;76.63;41.30;;;-0.30;99.90;;;;;;5016404;28;20030;-76
2022/01/13 08:51:36;;;;;;;72.75;42.38;;;-0.20;99.90;;;;;;5016769;28;20022;-77
2022/01/13 08:54:03;;;;;;;75.93;37.22;;;-0.20;99.90;;;;;;5017133;28;20057;-78
2022/01/13 08:56:28;;;;;;;80.18;36.42;;;-0.20;99.90;;;;;;5048381;28;20018;-77
2022/01/13 08:58:54;;;;;;;74.43;39.95;;;-0.20;99.90;;;;;;5016954;28;20026;-77
2022/01/13 09:01:21;;;;;;;65.93;35.85;;;-0.20;99.90;;;;;;5015578;28;20034;-77
2022/01/13 09:03:47;;;;;;;67.55;38.25;;;-0.10;99.90;;;;;;5017050;28;20038;-77
2022/01/13 09:06:13;;;;;;;70.22;37.45;;;-0.10;99.90;;;;;;5016493;28;20029;-77
2022/01/13 09:08:39;;;;;;;71.93;38.60;;;-0.10;99.90;;;;;;5016726;28;20053;-77
2022/01/13 09:11:05;;;;;;;70.13;37.60;;;0.00;99.90;;;;;;5016896;28;20029;-77
2022/01/13 09:13:36;;;;;;;69.43;36.40;;;0.00;99.90;;;;;;5017173;28;20026;-77
2022/01/13 09:16:02;;;;;;;;;;;0.00;99.90;;;;;;5017632;28;20034;-77
2022/01/13 09:18:44;;;;;;;73.68;37.95;;;0.00;99.90;;;;;;5016070;28;19959;-77
2022/01/13 09:21:10;;;;;;;163.23;96.03;;;0.10;99.90;;;;;;5005997;28;20068;-77
2022/01/13 09:23:36;;;;;;;74.53;43.53;;;0.00;99.90;;;;;;5016121;28;20022;-78
2022/01/13 09:26:03;;;;;;;71.03;41.90;;;0.10;99.90;;;;;;5016228;28;20033;-77
2022/01/13 09:28:29;;;;;;;82.43;41.45;;;0.10;99.90;;;;;;5015957;28;20025;-77
2022/01/13 09:30:55;;;;;;;78.78;38.92;;;0.20;99.90;;;;;;5016076;28;20105;-77
2022/01/13 09:33:21;;;;;;;83.40;39.55;;;0.20;99.90;;;;;;5014966;28;20022;-77
2022/01/13 09:35:48;;;;;;;81.55;38.25;;;0.20;99.90;;;;;;5016598;28;20858;-79
2022/01/13 09:38:13;;;;;;;72.30;38.13;;;0.20;99.90;;;;;;5016133;28;20104;-77
2022/01/13 09:40:45;;;;;;;81.65;43.13;;;0.20;99.90;;;;;;5016343;28;20026;-77
2022/01/13 09:43:11;;;;;;;123.00;67.72;;;0.20;99.90;;;;;;5005863;28;20569;-77
2022/01/13 09:45:37;;;;;;;173.60;87.35;;;0.20;99.90;;;;;;4998618;28;104418;-77
2022/01/13 09:48:04;;;;;;;90.68;43.10;;;0.30;99.90;;;;;;4997058;28;20759;-77
2022/01/13 09:50:30;;;;;;;89.18;44.67;;;0.40;99.90;;;;;;4998319;28;20442;-77
2022/01/13 09:52:56;;;;;;;77.72;39.60;;;0.40;99.90;;;;;;4997654;28;20097;-77
2022/01/13 09:55:22;;;;;;;81.93;42.13;;;0.50;99.90;;;;;;4996615;28;20125;-77
2022/01/13 09:57:50;;;;;;;203.00;96.15;;;0.50;99.90;;;;;;4998437;28;20050;-77
2022/01/13 10:00:22;;;;;;;537.17;294.77;;;0.50;99.90;;;;;;4999752;28;20034;-77
2022/01/13 10:02:48;;;;;;;79.93;41.28;;;0.60;99.90;;;;;;4995221;28;20035;-77
2022/01/13 10:05:18;;;;;;;79.85;40.17;;;0.60;99.90;;;;;;4988620;28;20026;-76
2022/01/13 10:07:47;;;;;;;94.43;42.37;;;0.60;99.90;;;;;;4997771;28;20046;-76
2022/01/13 10:10:19;;;;;;;85.63;41.08;;;0.70;99.90;;;;;;5008734;28;20049;-77
2022/01/13 10:12:59;;;;;;;77.80;40.75;;;0.60;99.90;;;;;;5017632;28;20022;-76
2022/01/13 10:18:09;;;;;;;120.20;59.55;;;0.70;99.90;;;;;;4999727;28;20124;-76
2022/01/13 10:20:35;;;;;;;167.80;89.15;;;0.70;99.90;;;;;;4999777;28;20030;-77
2022/01/13 10:23:12;;;;;;;181.95;90.13;;;0.70;99.90;;;;;;4998888;28;20117;-76
2022/01/13 10:25:40;;;;;;;182.10;92.25;;;0.80;99.90;;;;;;5000020;28;20368;-77
2022/01/13 10:28:21;;;;;;;119.18;65.57;;;0.90;99.90;;;;;;5000096;28;20095;-76
2022/01/13 10:30:49;;;;;;;101.13;50.08;;;0.90;99.90;;;;;;4998847;28;20026;-76
2022/01/13 10:33:17;;;;;;;78.35;39.35;;;1.00;99.90;;;;;;4999636;28;20022;-77
2022/01/13 10:35:44;;;;;;;79.90;39.78;;;1.00;99.90;;;;;;5005987;28;20022;-77
2022/01/13 10:38:10;;;;;;;79.18;40.35;;;1.20;99.90;;;;;;5019349;28;20620;-76
2022/01/13 10:40:40;;;;;;;78.47;38.83;;;1.30;99.90;;;;;;5019707;28;20014;-77
2022/01/13 10:43:07;;;;;;;;;;;1.20;99.90;;;;;;5019600;28;20391;-77
2022/01/13 10:45:38;;;;;;;83.07;37.75;;;1.10;99.90;;;;;;5018173;28;19914;-76
2022/01/13 10:48:15;;;;;;;74.82;39.50;;;1.30;99.90;;;;;;5017638;28;20022;-77
2022/01/13 10:50:56;;;;;;;77.30;37.65;;;1.40;99.90;;;;;;5019431;28;20045;-76
2022/01/13 10:53:33;;;;;;;72.68;37.10;;;1.40;99.90;;;;;;5016830;28;20394;-76
2022/01/13 10:56:07;;;;;;;78.70;37.60;;;1.20;99.90;;;;;;5019063;28;20040;-77
2022/01/13 10:58:40;;;;;;;69.43;35.10;;;1.30;99.90;;;;;;5007104;28;20392;-77
2022/01/13 11:01:06;;;;;;;67.07;36.20;;;1.40;99.90;;;;;;4997970;28;20084;-77
2022/01/13 11:03:39;;;;;;;72.22;33.83;;;1.40;99.90;;;;;;4996701;28;20074;-78
2022/01/13 11:06:08;;;;;;;67.45;33.92;;;1.40;99.90;;;;;;4995398;28;20049;-77
2022/01/13 11:08:40;;;;;;;72.88;34.85;;;1.40;99.90;;;;;;4982675;28;20038;-78
2022/01/13 11:11:06;;;;;;;70.15;36.08;;;1.50;99.90;;;;;;4983235;28;20034;-78
2022/01/13 11:13:39;;;;;;;73.72;36.05;;;1.60;99.90;;;;;;4993600;28;20062;-78
2022/01/13 11:16:04;;;;;;;83.63;38.58;;;1.70;99.90;;;;;;4997478;28;20031;-77
2022/01/13 11:18:33;;;;;;;83.70;39.20;;;1.70;99.90;;;;;;4997562;28;20032;-77
2022/01/13 11:21:01;;;;;;;76.13;38.30;;;1.80;99.90;;;;;;4985162;28;20062;-78
2022/01/13 11:23:28;;;;;;;82.47;39.97;;;1.80;99.90;;;;;;4992680;28;20023;-77
2022/01/13 11:25:56;;;;;;;94.05;40.28;;;1.90;99.90;;;;;;4999119;28;20026;-77
2022/01/13 11:28:23;;;;;;;91.30;43.88;;;2.00;99.90;;;;;;4998804;28;20025;-78
2022/01/13 11:30:52;;;;;;;86.47;37.70;;;2.00;99.90;;;;;;4998773;28;20027;-77
2022/01/13 11:33:22;;;;;;;76.47;38.33;;;2.10;99.90;;;;;;4997257;28;20022;-78
2022/01/13 11:35:55;;;;;;;86.60;39.35;;;2.20;99.90;;;;;;5007146;28;20429;-78
2022/01/13 11:38:22;;;;;;;92.05;39.17;;;2.30;99.90;;;;;;5018282;28;20026;-77
2022/01/13 11:40:51;;;;;;;80.28;35.35;;;2.30;99.90;;;;;;5008225;28;20105;-78
2022/01/13 11:43:31;;;;;;;79.65;36.05;;;2.40;99.90;;;;;;4998090;28;20023;-78
2022/01/13 11:46:14;;;;;;;71.88;37.83;;;2.50;99.90;;;;;;4998776;28;20038;-78
2022/01/13 11:48:56;;;;;;;70.93;34.95;;;2.50;99.90;;;;;;4998404;28;20067;-77
2022/01/13 11:51:22;;;;;;;73.10;35.22;;;2.70;99.90;;;;;;4998209;28;20049;-78
2022/01/13 11:53:54;;;;;;;76.13;36.10;;;2.70;99.90;;;;;;4992993;28;20022;-78
2022/01/13 11:56:20;;;;;;;43.70;24.20;;;2.70;99.90;;;;;;4995387;28;20395;-78
2022/01/13 11:58:48;;;;;;;54.58;24.00;;;2.60;99.90;;;;;;4998186;28;20030;-78
2022/01/13 12:01:32;;;;;;;101.25;26.55;;;2.50;99.90;;;;;;4993463;28;20102;-78
2022/01/13 12:04:03;;;;;;;54.75;23.63;;;2.40;99.90;;;;;;4979720;28;20546;-78
2022/01/13 12:06:50;;;;;;;72.22;27.38;;;2.30;99.90;;;;;;4980957;28;20097;-78
2022/01/13 12:09:22;;;;;;;75.15;28.17;;;2.20;99.90;;;;;;4985957;28;20047;-78
2022/01/13 12:11:55;;;;;;;60.72;29.70;;;2.10;99.90;;;;;;4994901;28;20036;-78
2022/01/13 12:14:29;;;;;;;60.60;29.55;;;2.10;99.90;;;;;;4997608;28;20010;-78
2022/01/13 12:17:00;;;;;;;71.28;30.05;;;2.20;99.90;;;;;;4998076;28;20065;-78
2022/01/13 12:19:38;;;;;;;60.80;28.92;;;2.20;99.90;;;;;;4997957;28;20026;-78
2022/01/13 12:22:10;;;;;;;55.10;29.10;;;2.20;99.90;;;;;;4997599;28;20069;-77
2022/01/13 12:24:55;;;;;;;53.20;26.00;;;2.30;99.90;;;;;;4998280;28;20114;-78
2022/01/13 12:27:28;;;;;;;52.25;27.40;;;2.40;99.90;;;;;;4996468;28;20022;-78
2022/01/13 12:30:09;;;;;;;58.22;27.38;;;2.50;99.90;;;;;;4996409;28;20027;-78
2022/01/13 12:32:43;;;;;;;57.58;28.00;;;2.50;99.90;;;;;;4991114;28;20495;-77
2022/01/13 12:35:12;;;;;;;59.53;29.00;;;2.40;99.90;;;;;;5000859;28;20034;-77
2022/01/13 12:37:39;;;;;;;52.15;27.48;;;2.50;99.90;;;;;;5017405;28;20029;-77
2022/01/13 12:40:15;;;;;;;46.67;24.67;;;2.60;99.90;;;;;;5017274;28;20026;-77
2022/01/13 12:42:50;;;;;;;42.58;24.38;;;2.60;99.90;;;;;;5017418;28;20042;-77
2022/01/13 12:45:28;;;;;;;52.80;27.55;;;2.60;99.90;;;;;;5017362;28;20483;-77
2022/01/13 12:48:12;;;;;;;48.70;26.75;;;2.60;99.90;;;;;;5016997;28;20037;-77
2022/01/13 12:50:40;;;;;;;63.05;27.77;;;2.40;99.90;;;;;;5017407;28;20498;-77